Weather History for Siren, WI

Change the Weather History Date:

Thursday, April 11, 2013

  Actual Average Record
Temperature  
Mean Temperature 32 °F -  
Max Temperature 35 °F - - ()
Min Temperature 28 °F - - ()
Degree Days  
Heating Degree Days 34    
Moisture  
Dew Point 24 °F    
Average Humidity 77    
Maximum Humidity 100    
Minimum Humidity 44    
Precipitation  
Precipitation 0.03 in - - ()
Sea Level Pressure  
Sea Level Pressure 29.82 in    
Wind  
Wind Speed 11 mph (East)    
Max Wind Speed 18 mph    
Max Gust Speed 30 mph    
Visibility 6 miles    
Events Snow    
T = Trace of Precipitation, MM = Missing Value Source: NWS Daily Summary

Daily Weather History Graph

Daily Weather History Graph

Search for Another Location

Airport:

Trip Planner

Search our weather history database for the weather conditions in past years. The results will help you decide how hot, cold, wet, or windy it might be!

Date:

Astronomy

Apr. 11, 2013 Rise Set
Actual Time 6:30 AM CDT 7:51 PM CDT
Civil Twilight 5:59 AM CDT 8:22 PM CDT
Nautical Twilight 5:22 AM CDT 8:59 PM CDT
Astronomical Twilight 4:42 AM CDT 9:39 PM CDT
Moon 6:57 AM CDT (4/11) 9:32 PM CDT (4/11)
Length of Visible Light 14h 22m
Length of Day
13h 21m
New Moon, 2% of the Moon is Illuminated
Apr 11
New Moon
Apr 18
First Quarter
Apr 25
Full
May 2
Last Quarter
May 9
New

Hourly Weather History & Observations

Time (CDT) Temp. Windchill Dew Point Humidity Pressure Visibility Wind Dir Wind Speed Gust Speed Precip Events Conditions
12:15 AM 35.6 °F 28.6 °F 17.6 °F 48% 29.98 in 10.0 mi East 9.2 mph 20.7 mph N/A   Overcast
12:35 AM 35.6 °F 30.7 °F 17.6 °F 48% 29.98 in 10.0 mi East 5.8 mph - N/A   Overcast
12:55 AM 35.6 °F 29.2 °F 15.8 °F 44% 29.98 in 10.0 mi East 8.1 mph - N/A   Overcast
1:15 AM 33.8 °F 26.4 °F 15.8 °F 48% 29.97 in 10.0 mi East 9.2 mph 17.3 mph N/A   Mostly Cloudy
1:35 AM 33.8 °F 27.0 °F 14.0 °F 44% 29.96 in 10.0 mi East 8.1 mph 18.4 mph N/A   Mostly Cloudy
1:55 AM 33.8 °F 25.3 °F 14.0 °F 44% 29.95 in 10.0 mi East 11.5 mph 16.1 mph N/A   Scattered Clouds
2:15 AM 33.8 °F 25.8 °F 14.0 °F 44% 29.94 in 10.0 mi East 10.4 mph 18.4 mph N/A   Mostly Cloudy
2:35 AM 33.8 °F 25.3 °F 14.0 °F 44% 29.93 in 10.0 mi East 11.5 mph 17.3 mph N/A   Mostly Cloudy
2:55 AM 33.8 °F 25.3 °F 14.0 °F 44% 29.92 in 10.0 mi East 11.5 mph 20.7 mph N/A   Mostly Cloudy
3:15 AM 33.8 °F 24.8 °F 14.0 °F 44% 29.92 in 10.0 mi East 12.7 mph 16.1 mph N/A   Mostly Cloudy
3:35 AM 33.8 °F 25.3 °F 14.0 °F 44% 29.90 in 10.0 mi East 11.5 mph 21.9 mph N/A   Overcast
3:55 AM 33.8 °F 25.3 °F 14.0 °F 44% 29.90 in 10.0 mi East 11.5 mph 20.7 mph N/A   Overcast
4:15 AM 33.8 °F 26.4 °F 14.0 °F 44% 29.90 in 10.0 mi East 9.2 mph 18.4 mph N/A   Overcast
4:35 AM 33.8 °F 26.4 °F 15.8 °F 48% 29.89 in 10.0 mi East 9.2 mph 20.7 mph N/A   Overcast
5:15 AM 32.0 °F 23.6 °F 15.8 °F 51% 29.86 in 10.0 mi East 10.4 mph 18.4 mph N/A   Overcast
5:35 AM 32.0 °F 22.5 °F 17.6 °F 55% 29.85 in 10.0 mi East 12.7 mph 18.4 mph N/A   Overcast
5:55 AM 32.0 °F 22.5 °F 17.6 °F 55% 29.84 in 10.0 mi East 12.7 mph 18.4 mph N/A   Overcast
6:15 AM 32.0 °F 22.5 °F 19.4 °F 60% 29.83 in 10.0 mi East 12.7 mph 18.4 mph N/A   Overcast
6:35 AM 32.0 °F 21.6 °F 19.4 °F 60% 29.81 in 10.0 mi East 15.0 mph 20.7 mph N/A   Overcast
6:55 AM 32.0 °F 22.1 °F 21.2 °F 64% 29.81 in 10.0 mi East 13.8 mph 24.2 mph N/A   Overcast
7:15 AM 32.0 °F 23.0 °F 21.2 °F 64% 29.82 in 10.0 mi East 11.5 mph 20.7 mph N/A   Overcast
7:35 AM 32.0 °F 26.4 °F 21.2 °F 64% 29.89 in 10.0 mi ESE 5.8 mph - N/A   Overcast
7:55 AM 32.0 °F 23.6 °F 23.0 °F 69% 29.90 in 4.0 mi East 10.4 mph - N/A Snow Light Snow
8:15 AM 32.0 °F 25.6 °F 26.6 °F 80% 29.90 in 1.5 mi East 6.9 mph - N/A Snow Light Snow
8:35 AM 30.2 °F 20.2 °F 26.6 °F 86% 29.88 in 2.0 mi ENE 12.7 mph 16.1 mph N/A Snow Light Snow
8:55 AM 30.2 °F 21.3 °F 28.4 °F 93% 29.87 in 0.5 mi ENE 10.4 mph - N/A Snow Light Snow
9:15 AM 30.2 °F 20.2 °F 28.4 °F 93% 29.85 in 0.5 mi ENE 12.7 mph 19.6 mph N/A Snow Snow
9:35 AM 30.2 °F 18.9 °F 28.4 °F 93% 29.83 in 1.0 mi East 16.1 mph 23.0 mph N/A Snow Light Snow
9:55 AM 30.2 °F 18.9 °F 28.4 °F 93% 29.82 in 2.0 mi East 16.1 mph 23.0 mph N/A Snow Light Snow
10:15 AM 30.2 °F 19.8 °F 28.4 °F 93% 29.83 in 2.5 mi East 13.8 mph 24.2 mph N/A Snow Light Snow
10:35 AM 30.2 °F 20.8 °F 28.4 °F 93% 29.83 in 2.0 mi East 11.5 mph 21.9 mph N/A Snow Light Snow
10:55 AM 32.0 °F 22.1 °F 28.4 °F 87% 29.83 in 7.0 mi East 13.8 mph 23.0 mph N/A   Overcast
11:15 AM 32.0 °F 23.0 °F 28.4 °F 87% 29.83 in 2.5 mi East 11.5 mph 25.3 mph N/A Snow Light Snow
11:35 AM 32.0 °F 22.1 °F 28.4 °F 87% 29.81 in 2.5 mi East 13.8 mph 29.9 mph N/A Snow Light Snow
11:55 AM 32.0 °F 22.1 °F 28.4 °F 87% 29.83 in 5.0 mi East 13.8 mph 21.9 mph N/A   Haze
12:15 PM 32.0 °F 21.6 °F 28.4 °F 87% 29.81 in 4.0 mi East 15.0 mph 24.2 mph N/A   Haze
12:35 PM 33.8 °F 24.8 °F 28.4 °F 81% 29.81 in 7.0 mi East 12.7 mph 23.0 mph N/A   Overcast
12:55 PM 33.8 °F 24.3 °F 28.4 °F 81% 29.80 in 7.0 mi East 13.8 mph 21.9 mph 0.02 in   Overcast
1:15 PM 33.8 °F 22.8 °F 26.6 °F 75% 29.80 in 10.0 mi ESE 18.4 mph 28.8 mph N/A   Overcast
1:35 PM 33.8 °F 22.8 °F 26.6 °F 75% 29.80 in 10.0 mi East 18.4 mph 25.3 mph 0.01 in   Overcast
1:55 PM 33.8 °F 24.3 °F 26.6 °F 75% 29.78 in 7.0 mi East 13.8 mph 27.6 mph 0.01 in   Overcast
2:15 PM 33.8 °F 24.8 °F 28.4 °F 81% 29.77 in 7.0 mi East 12.7 mph 23.0 mph N/A   Overcast
2:35 PM 32.0 °F 25.6 °F 28.4 °F 87% 29.77 in 4.0 mi East 6.9 mph 21.9 mph N/A Snow Light Snow
2:55 PM 32.0 °F 21.6 °F 28.4 °F 87% 29.78 in 10.0 mi East 15.0 mph 19.6 mph N/A   Overcast
3:15 PM 33.8 °F 24.3 °F 28.4 °F 81% 29.76 in 10.0 mi East 13.8 mph 24.2 mph N/A   Overcast
3:35 PM 33.8 °F 23.9 °F 28.4 °F 81% 29.76 in 4.0 mi East 15.0 mph 21.9 mph N/A   Haze
3:55 PM 32.0 °F 24.8 °F 28.4 °F 87% 29.76 in 3.0 mi East 8.1 mph 20.7 mph N/A Snow Light Snow
4:15 PM 32.0 °F 23.0 °F 28.4 °F 87% 29.76 in 5.0 mi East 11.5 mph 19.6 mph N/A   Haze
4:35 PM 32.0 °F 24.8 °F 28.4 °F 87% 29.76 in 4.0 mi East 8.1 mph - N/A Snow Light Snow
4:55 PM 32.0 °F 23.6 °F 28.4 °F 87% 29.76 in 7.0 mi East 10.4 mph - N/A Snow Light Snow
5:15 PM 32.0 °F 24.2 °F 28.4 °F 87% 29.77 in 2.5 mi East 9.2 mph - N/A Snow Light Snow
5:35 PM 32.0 °F 24.8 °F 28.4 °F 87% 29.77 in 3.0 mi East 8.1 mph - N/A Snow Light Snow
5:55 PM 32.0 °F 24.8 °F 30.2 °F 93% 29.77 in 1.8 mi ENE 8.1 mph - N/A Snow Light Snow
6:15 PM 32.0 °F 24.8 °F 30.2 °F 93% 29.77 in 4.0 mi ENE 8.1 mph - N/A Snow Light Snow
6:35 PM 32.0 °F 24.2 °F 30.2 °F 93% 29.77 in 2.0 mi ENE 9.2 mph 19.6 mph N/A Snow Light Snow
6:55 PM 30.2 °F 20.8 °F 30.2 °F 100% 29.76 in 2.5 mi ENE 11.5 mph 19.6 mph N/A Snow Light Snow
7:15 PM 30.2 °F 20.8 °F 28.4 °F 93% 29.76 in 3.0 mi ENE 11.5 mph - N/A Snow Light Snow
7:35 PM 30.2 °F 21.3 °F 28.4 °F 93% - 4.0 mi ENE 10.4 mph 17.3 mph N/A Snow Light Snow
7:55 PM 30.2 °F 21.3 °F 28.4 °F 93% 29.76 in 5.0 mi ENE 10.4 mph 18.4 mph N/A Snow Light Snow
8:15 PM 30.2 °F 20.8 °F 28.4 °F 93% 29.75 in 10.0 mi ENE 11.5 mph 20.7 mph N/A   Overcast
8:35 PM 30.2 °F 22.6 °F 28.4 °F 93% 29.76 in 4.0 mi ENE 8.1 mph - N/A Snow Light Snow
8:55 PM 30.2 °F 21.3 °F 28.4 °F 93% 29.76 in 4.0 mi East 10.4 mph - N/A Snow Light Snow
9:15 PM 30.2 °F 21.3 °F 28.4 °F 93% 29.76 in 4.0 mi East 10.4 mph 16.1 mph N/A Snow Light Snow
9:35 PM 30.2 °F 22.6 °F 28.4 °F 93% 29.76 in 3.0 mi ENE 8.1 mph 17.3 mph N/A Snow Light Snow
9:55 PM 28.4 °F 19.7 °F 28.4 °F 100% 29.76 in 5.0 mi ENE 9.2 mph - N/A   Overcast
10:15 PM 28.4 °F 18.5 °F 28.4 °F 100% 29.75 in 4.0 mi ENE 11.5 mph 18.4 mph N/A Snow Light Snow
10:35 PM 28.4 °F 19.1 °F 26.6 °F 93% 29.75 in 5.0 mi ENE 10.4 mph - N/A   Overcast
10:55 PM 28.4 °F 19.1 °F 26.6 °F 93% 29.75 in 7.0 mi ENE 10.4 mph 17.3 mph N/A   Overcast
11:15 PM 28.4 °F 19.1 °F 26.6 °F 93% 29.75 in 7.0 mi ENE 10.4 mph 17.3 mph N/A   Overcast
11:35 PM 28.4 °F 18.0 °F 26.6 °F 93% 29.74 in 10.0 mi ENE 12.7 mph 17.3 mph N/A   Overcast
11:55 PM 28.4 °F 19.7 °F 26.6 °F 93% 29.74 in 7.0 mi ENE 9.2 mph 18.4 mph N/A Snow Light Snow